Time;durP1;ratioP1;P1;durP2;ratioP2;P2;SDS_P1;SDS_P2;PMS_P1;PMS_P2;Temp;Humidity;BMP_temperature;BMP_pressure;BME280_temperature;BME280_humidity;BME280_pressure;Samples;Min_cycle;Max_cycle;Signal;HPM_P1;HPM_P2
2022/01/21 00:00:16;;;;;;;23.17;21.87;;;;;;;;;;5095777;28;20198;-81
2022/01/21 00:02:42;;;;;;;22.03;20.83;;;;;;;;;;5095477;28;20247;-81
2022/01/21 00:05:10;;;;;;;24.00;22.43;;;;;;;;;;5095458;28;20198;-82
2022/01/21 00:07:36;;;;;;;22.00;20.80;;;;;;;;;;5095724;28;20193;-83
2022/01/21 00:10:04;;;;;;;21.77;20.47;;;;;;;;;;5095583;28;20328;-82
2022/01/21 00:12:31;;;;;;;20.97;19.87;;;;;;;;;;5095908;28;20548;-82
2022/01/21 00:14:58;;;;;;;20.40;19.37;;;;;;;;;;5095519;28;20202;-83
2022/01/21 00:17:26;;;;;;;20.93;19.87;;;;;;;;;;5096286;28;20201;-84
2022/01/21 00:30:05;;;;;;;21.07;19.97;;;;;;;;;;5095913;28;20251;-84
2022/01/21 00:30:48;;;;;;;21.77;20.57;;;;;;;;;;5052360;28;20534;-88
2022/01/21 00:33:16;;;;;;;21.47;20.37;;;;;;;;;;5099121;28;20229;-85
2022/01/21 00:35:43;;;;;;;22.17;21.07;;;;;;;;;;5097143;28;20724;-88
2022/01/21 00:38:09;;;;;;;19.70;18.80;;;;;;;;;;5097362;28;20248;-87
2022/01/21 00:40:36;;;;;;;20.90;19.87;;;;;;;;;;5097641;28;20632;-88
2022/01/21 00:43:15;;;;;;;19.87;18.97;;;;;;;;;;5096605;28;20606;-89
2022/01/21 00:45:42;;;;;;;19.63;18.70;;;;;;;;;;5096328;28;20247;-86
2022/01/21 00:48:09;;;;;;;19.30;18.40;;;;;;;;;;5096296;28;20267;-87
2022/01/21 00:50:37;;;;;;;21.37;20.37;;;;;;;;;;5096635;28;20263;-89
2022/01/21 00:53:04;;;;;;;21.60;20.40;;;;;;;;;;5096837;28;20663;-85
2022/01/21 00:55:31;;;;;;;23.80;22.40;;;;;;;;;;5096353;28;20229;-88
2022/01/21 00:57:57;;;;;;;23.90;22.60;;;;;;;;;;5095717;28;20229;-86
2022/01/21 01:00:24;;;;;;;26.57;25.07;;;;;;;;;;5096247;28;20246;-85
2022/01/21 01:02:51;;;;;;;28.00;26.47;;;;;;;;;;5095161;28;20194;-84
2022/01/21 01:05:18;;;;;;;29.20;27.60;;;;;;;;;;5097545;28;20590;-89
2022/01/21 01:07:46;;;;;;;28.83;27.17;;;;;;;;;;5097895;28;20200;-87
2022/01/21 01:10:21;;;;;;;28.67;27.07;;;;;;;;;;5101046;28;20280;-88
2022/01/21 01:12:57;;;;;;;31.00;29.20;;;;;;;;;;5095031;28;20567;-87
2022/01/21 01:20:52;;;;;;;33.10;30.90;;;;;;;;;;5095016;28;20192;-84
2022/01/21 01:23:27;;;;;;;36.57;34.07;;;;;;;;;;5094434;28;20298;-85
2022/01/21 01:28:39;;;;;;;38.13;35.73;;;;;;;;;;5094574;28;20185;-86
2022/01/21 01:31:05;;;;;;;37.00;34.60;;;;;;;;;;5095890;28;20198;-86
2022/01/21 01:33:37;;;;;;;38.97;36.40;;;;;;;;;;5095412;28;20229;-86
2022/01/21 01:36:05;;;;;;;35.90;33.60;;;;;;;;;;5094490;28;20185;-86
2022/01/21 01:41:26;;;;;;;38.37;35.97;;;;;;;;;;5073122;28;20205;-82
2022/01/21 01:49:30;;;;;;;36.67;34.27;;;;;;;;;;5093539;28;20225;-85
2022/01/21 01:51:57;;;;;;;33.30;31.20;;;;;;;;;;5093483;28;20220;-83
2022/01/21 01:54:26;;;;;;;36.73;34.47;;;;;;;;;;5093651;28;20281;-83
2022/01/21 01:56:55;;;;;;;34.00;31.90;;;;;;;;;;5093231;28;20194;-83
2022/01/21 01:59:21;;;;;;;33.40;31.30;;;;;;;;;;5093090;28;20230;-83
2022/01/21 02:01:52;;;;;;;31.17;29.17;;;;;;;;;;5093491;28;20197;-82
2022/01/21 02:04:19;;;;;;;32.50;30.40;;;;;;;;;;5093444;28;20197;-82
2022/01/21 02:06:45;;;;;;;36.30;34.03;;;;;;;;;;5093454;28;20198;-81
2022/01/21 02:09:12;;;;;;;34.90;32.70;;;;;;;;;;5092967;28;20312;-81
2022/01/21 02:11:40;;;;;;;36.43;34.13;;;;;;;;;;5093272;28;20189;-80
2022/01/21 02:14:11;;;;;;;35.00;32.70;;;;;;;;;;5093619;28;20277;-80
2022/01/21 02:16:54;;;;;;;36.53;34.23;;;;;;;;;;5092934;28;20196;-80
2022/01/21 02:22:07;;;;;;;33.93;31.83;;;;;;;;;;5092971;28;20189;-80
2022/01/21 02:24:46;;;;;;;32.10;30.10;;;;;;;;;;5092789;28;20198;-80
2022/01/21 02:27:13;;;;;;;36.43;34.23;;;;;;;;;;5093081;28;20271;-80
2022/01/21 02:29:46;;;;;;;36.30;34.10;;;;;;;;;;5092886;28;20253;-80
2022/01/21 02:32:13;;;;;;;46.37;43.43;;;;;;;;;;5092977;28;20205;-79
2022/01/21 02:34:39;;;;;;;35.43;33.23;;;;;;;;;;5092614;28;20285;-79
2022/01/21 02:37:08;;;;;;;35.83;33.63;;;;;;;;;;5092870;28;20197;-79
2022/01/21 02:39:34;;;;;;;38.53;36.13;;;;;;;;;;5092519;28;20284;-79
2022/01/21 02:42:01;;;;;;;35.23;32.93;;;;;;;;;;5092420;28;20237;-79
2022/01/21 02:44:28;;;;;;;33.57;31.57;;;;;;;;;;5100409;28;20194;-79
2022/01/21 02:46:57;;;;;;;39.00;36.50;;;;;;;;;;5107128;28;20193;-78
2022/01/21 02:49:24;;;;;;;34.97;32.57;;;;;;;;;;5107027;28;20249;-78
2022/01/21 02:51:51;;;;;;;32.80;30.60;;;;;;;;;;5107554;28;20237;-78
2022/01/21 02:54:20;;;;;;;30.10;27.83;;;;;;;;;;5106323;28;20193;-78
2022/01/21 02:56:46;;;;;;;33.40;31.37;;;;;;;;;;5105348;28;20193;-78
2022/01/21 02:59:13;;;;;;;30.57;28.57;;;;;;;;;;5104412;28;20702;-78
2022/01/21 03:01:41;;;;;;;31.97;29.97;;;;;;;;;;5106252;28;20193;-78
2022/01/21 03:04:09;;;;;;;31.70;29.70;;;;;;;;;;5104925;28;20250;-77
2022/01/21 03:06:37;;;;;;;31.57;29.57;;;;;;;;;;5103878;28;20229;-77
2022/01/21 03:09:04;;;;;;;32.40;30.30;;;;;;;;;;5101031;28;20202;-77
2022/01/21 03:11:33;;;;;;;29.70;27.70;;;;;;;;;;5101309;28;20208;-77
2022/01/21 03:13:59;;;;;;;29.67;27.67;;;;;;;;;;5097909;28;20631;-77
2022/01/21 03:16:27;;;;;;;29.00;27.00;;;;;;;;;;5095861;28;20247;-77
2022/01/21 03:18:54;;;;;;;31.67;29.47;;;;;;;;;;5094098;28;20198;-77
2022/01/21 03:21:21;;;;;;;29.87;27.67;;;;;;;;;;5092406;28;20582;-77
2022/01/21 03:23:49;;;;;;;26.20;24.30;;;;;;;;;;5092213;28;20656;-77
2022/01/21 03:26:16;;;;;;;27.07;25.17;;;;;;;;;;5092038;28;20232;-77
2022/01/21 03:28:45;;;;;;;28.10;26.20;;;;;;;;;;5091906;28;20573;-77
2022/01/21 03:31:12;;;;;;;30.77;28.70;;;;;;;;;;5092962;28;20687;-77
2022/01/21 03:33:39;;;;;;;29.53;27.53;;;;;;;;;;5096356;28;20193;-77
2022/01/21 03:36:06;;;;;;;29.80;27.80;;;;;;;;;;5096046;28;20194;-77
2022/01/21 03:38:33;;;;;;;29.73;27.87;;;;;;;;;;5096263;28;20237;-78
2022/01/21 03:40:59;;;;;;;29.63;27.83;;;;;;;;;;5096245;28;20276;-78
2022/01/21 03:43:26;;;;;;;28.17;26.37;;;;;;;;;;5095899;28;20642;-78
2022/01/21 03:45:54;;;;;;;27.37;25.57;;;;;;;;;;5095831;28;20258;-78
2022/01/21 03:48:21;;;;;;;30.73;28.93;;;;;;;;;;5096058;28;20283;-78
2022/01/21 03:50:48;;;;;;;30.17;28.37;;;;;;;;;;5095697;28;20707;-78
2022/01/21 03:53:15;;;;;;;27.50;25.80;;;;;;;;;;5096017;28;20251;-78
2022/01/21 03:55:42;;;;;;;27.63;26.03;;;;;;;;;;5096050;28;20626;-78
2022/01/21 03:58:10;;;;;;;27.50;25.90;;;;;;;;;;5095461;28;20287;-78
2022/01/21 04:00:37;;;;;;;28.53;26.73;;;;;;;;;;5095552;28;20281;-78
2022/01/21 04:03:06;;;;;;;28.27;26.57;;;;;;;;;;5095834;28;20544;-77
2022/01/21 04:05:33;;;;;;;25.43;23.77;;;;;;;;;;5095503;28;20243;-77
2022/01/21 04:08:00;;;;;;;27.17;25.57;;;;;;;;;;5095711;28;20205;-78
2022/01/21 04:10:26;;;;;;;27.30;25.60;;;;;;;;;;5095616;28;20229;-78
2022/01/21 04:12:53;;;;;;;23.20;21.70;;;;;;;;;;5095323;28;20240;-78
2022/01/21 04:15:20;;;;;;;26.77;25.07;;;;;;;;;;5096065;28;20225;-78
2022/01/21 04:17:47;;;;;;;26.70;25.00;;;;;;;;;;5095132;28;20580;-78
2022/01/21 04:20:16;;;;;;;25.10;23.50;;;;;;;;;;5095519;28;20197;-78
2022/01/21 04:22:43;;;;;;;27.00;25.40;;;;;;;;;;5095416;28;20194;-78
2022/01/21 04:25:10;;;;;;;25.73;24.13;;;;;;;;;;5095468;28;20667;-78
2022/01/21 04:27:37;;;;;;;26.10;24.50;;;;;;;;;;5095017;28;20735;-78
2022/01/21 04:30:05;;;;;;;25.40;23.80;;;;;;;;;;5095331;28;20229;-78
2022/01/21 04:32:31;;;;;;;24.57;23.17;;;;;;;;;;5095016;28;20205;-79
2022/01/21 04:34:58;;;;;;;23.40;21.90;;;;;;;;;;5096061;28;20275;-78
2022/01/21 04:37:26;;;;;;;23.83;22.33;;;;;;;;;;5094886;28;20284;-79
2022/01/21 04:39:58;;;;;;;24.77;23.27;;;;;;;;;;5095155;28;20245;-79
2022/01/21 04:47:52;;;;;;;22.63;21.43;;;;;;;;;;5095056;28;20189;-80
2022/01/21 04:50:19;;;;;;;23.60;22.40;;;;;;;;;;5094582;28;20258;-81
2022/01/21 04:52:47;;;;;;;23.60;22.40;;;;;;;;;;5094962;28;20198;-80
2022/01/21 04:55:14;;;;;;;23.00;21.70;;;;;;;;;;5094525;28;20200;-81
2022/01/21 04:57:41;;;;;;;23.10;22.00;;;;;;;;;;5094325;28;20225;-81
2022/01/21 05:00:08;;;;;;;22.53;21.33;;;;;;;;;;5094762;28;20202;-82
2022/01/21 05:02:35;;;;;;;23.17;21.97;;;;;;;;;;5094736;28;20613;-82
2022/01/21 05:05:03;;;;;;;23.43;22.33;;;;;;;;;;5094322;28;20197;-82
2022/01/21 05:07:32;;;;;;;23.33;22.23;;;;;;;;;;5094298;28;20194;-81
2022/01/21 05:10:02;;;;;;;24.00;22.90;;;;;;;;;;5094511;28;20225;-81
2022/01/21 05:12:29;;;;;;;22.90;21.80;;;;;;;;;;5094614;28;20190;-81
2022/01/21 05:15:11;;;;;;;22.20;21.00;;;;;;;;;;5094869;28;20201;-82
2022/01/21 05:17:44;;;;;;;25.43;24.23;;;;;;;;;;5094118;28;20528;-81
2022/01/21 05:20:11;;;;;;;26.40;25.20;;;;;;;;;;5094124;28;20190;-81
2022/01/21 05:22:38;;;;;;;25.67;24.33;;;;;;;;;;5094185;28;20193;-81
2022/01/21 05:25:06;;;;;;;24.23;22.93;;;;;;;;;;5093979;28;20194;-81
2022/01/21 05:27:33;;;;;;;20.97;19.87;;;;;;;;;;5093861;28;20190;-81
2022/01/21 05:30:00;;;;;;;21.33;20.23;;;;;;;;;;5093817;28;20699;-81
2022/01/21 05:32:27;;;;;;;24.27;22.97;;;;;;;;;;5093877;28;20190;-81
2022/01/21 05:34:53;;;;;;;23.10;21.90;;;;;;;;;;5093757;28;20247;-81
2022/01/21 05:37:20;;;;;;;23.80;22.50;;;;;;;;;;5094040;28;20190;-81
2022/01/21 05:39:47;;;;;;;25.63;24.23;;;;;;;;;;5093611;28;20725;-81
2022/01/21 05:42:15;;;;;;;24.83;23.53;;;;;;;;;;5093914;28;20225;-81
2022/01/21 05:47:25;;;;;;;23.50;22.10;;;;;;;;;;5093678;28;20189;-81
2022/01/21 05:49:52;;;;;;;23.73;22.33;;;;;;;;;;5093723;28;20280;-77
2022/01/21 05:52:20;;;;;;;23.93;22.43;;;;;;;;;;5093871;28;20197;-78
2022/01/21 05:54:47;;;;;;;24.20;22.67;;;;;;;;;;5093795;28;20620;-79
2022/01/21 05:57:17;;;;;;;23.83;22.33;;;;;;;;;;5094155;28;20652;-78
2022/01/21 05:59:45;;;;;;;21.63;20.23;;;;;;;;;;5093968;28;20187;-79
2022/01/21 06:02:12;;;;;;;23.30;21.80;;;;;;;;;;5093833;28;20390;-76
2022/01/21 06:04:43;;;;;;;20.97;19.67;;;;;;;;;;5093724;28;20200;-78
2022/01/21 06:07:10;;;;;;;20.83;19.73;;;;;;;;;;5094513;28;20182;-76
2022/01/21 06:09:37;;;;;;;23.43;22.00;;;;;;;;;;5094697;28;20277;-79
2022/01/21 06:12:04;;;;;;;25.23;23.63;;;;;;;;;;5093265;28;20238;-79
2022/01/21 06:14:33;;;;;;;25.60;24.07;;;;;;;;;;5093289;28;20194;-78
2022/01/21 06:16:59;;;;;;;24.97;23.37;;;;;;;;;;5093965;28;20604;-78
2022/01/21 06:19:26;;;;;;;25.83;24.23;;;;;;;;;;5093590;28;20629;-79
2022/01/21 06:21:53;;;;;;;28.37;26.67;;;;;;;;;;5093735;28;20274;-78
2022/01/21 06:24:19;;;;;;;28.60;26.80;;;;;;;;;;5093527;28;20661;-78
2022/01/21 06:26:46;;;;;;;27.53;25.83;;;;;;;;;;5093684;28;20292;-79
2022/01/21 06:29:13;;;;;;;26.83;25.13;;;;;;;;;;5094661;28;20233;-80
2022/01/21 06:31:41;;;;;;;25.67;24.07;;;;;;;;;;5093061;28;20225;-80
2022/01/21 06:34:07;;;;;;;25.13;23.53;;;;;;;;;;5093036;28;20237;-81
2022/01/21 06:36:34;;;;;;;22.80;21.50;;;;;;;;;;5092678;28;20578;-81
2022/01/21 06:39:01;;;;;;;21.87;20.77;;;;;;;;;;5092615;28;20194;-80
2022/01/21 06:41:28;;;;;;;21.20;20.10;;;;;;;;;;5092907;28;20656;-80
2022/01/21 06:43:54;;;;;;;20.00;19.00;;;;;;;;;;5092756;28;20194;-80
2022/01/21 06:46:21;;;;;;;20.60;19.60;;;;;;;;;;5092517;28;20724;-80
2022/01/21 06:48:49;;;;;;;19.53;18.53;;;;;;;;;;5092732;28;20190;-80
2022/01/21 06:51:16;;;;;;;20.13;19.13;;;;;;;;;;5092686;28;20641;-80
2022/01/21 06:53:42;;;;;;;20.53;19.53;;;;;;;;;;5092352;28;20194;-80
2022/01/21 06:56:09;;;;;;;21.23;20.13;;;;;;;;;;5092297;28;20194;-80
2022/01/21 06:58:36;;;;;;;19.67;18.67;;;;;;;;;;5092263;28;20263;-80
2022/01/21 07:01:03;;;;;;;19.27;18.37;;;;;;;;;;5092560;28;20629;-81
2022/01/21 07:03:29;;;;;;;19.33;18.37;;;;;;;;;;5092608;28;20255;-81
2022/01/21 07:05:59;;;;;;;20.30;19.30;;;;;;;;;;5091819;28;20733;-80
2022/01/21 07:08:26;;;;;;;23.73;22.33;;;;;;;;;;5092440;28;20258;-80
2022/01/21 07:10:53;;;;;;;29.40;27.50;;;;;;;;;;5092349;28;20236;-80
2022/01/21 07:13:20;;;;;;;29.50;27.30;;;;;;;;;;5092063;28;20281;-80
2022/01/21 07:15:46;;;;;;;28.57;26.57;;;;;;;;;;5092397;28;20247;-80
2022/01/21 07:18:13;;;;;;;30.80;28.70;;;;;;;;;;5092052;28;20326;-81
2022/01/21 07:20:40;;;;;;;29.37;27.37;;;;;;;;;;5091964;28;20285;-80
2022/01/21 07:23:08;;;;;;;28.10;26.10;;;;;;;;;;5092097;28;20194;-81
2022/01/21 07:25:35;;;;;;;28.97;27.17;;;;;;;;;;5092312;28;20276;-81
2022/01/21 07:28:02;;;;;;;31.83;29.83;;;;;;;;;;5092064;28;20634;-80
2022/01/21 07:30:28;;;;;;;30.43;28.53;;;;;;;;;;5092179;28;20221;-80
2022/01/21 07:32:55;;;;;;;29.70;27.83;;;;;;;;;;5091924;28;20302;-80
2022/01/21 07:35:22;;;;;;;28.67;26.87;;;;;;;;;;5091928;28;20284;-80
2022/01/21 07:37:48;;;;;;;30.37;28.47;;;;;;;;;;5092217;28;20202;-80
2022/01/21 07:40:17;;;;;;;29.70;27.90;;;;;;;;;;5091870;28;20233;-80
2022/01/21 07:42:43;;;;;;;28.37;26.57;;;;;;;;;;5091825;28;20738;-80
2022/01/21 07:45:10;;;;;;;26.03;24.43;;;;;;;;;;5091851;28;20201;-80
2022/01/21 07:47:37;;;;;;;25.27;23.77;;;;;;;;;;5092150;28;20250;-80
2022/01/21 07:50:04;;;;;;;24.27;22.87;;;;;;;;;;5091723;28;20252;-79
2022/01/21 07:52:31;;;;;;;22.70;21.50;;;;;;;;;;5091704;28;20615;-80
2022/01/21 07:54:58;;;;;;;21.93;20.83;;;;;;;;;;5092010;28;20247;-80
2022/01/21 07:57:26;;;;;;;21.97;20.87;;;;;;;;;;5091457;28;20230;-80
2022/01/21 07:59:53;;;;;;;22.07;20.93;;;;;;;;;;5092085;28;20316;-80
2022/01/21 08:02:19;;;;;;;22.30;21.10;;;;;;;;;;5091789;28;20193;-80
2022/01/21 08:04:46;;;;;;;23.10;21.90;;;;;;;;;;5091959;28;20281;-80
2022/01/21 08:07:13;;;;;;;22.43;21.23;;;;;;;;;;5091633;28;20229;-80
2022/01/21 08:09:39;;;;;;;22.00;20.80;;;;;;;;;;5092028;28;20275;-79
2022/01/21 08:12:07;;;;;;;21.77;20.67;;;;;;;;;;5091922;28;20279;-79
2022/01/21 08:14:35;;;;;;;20.50;19.50;;;;;;;;;;5091597;28;20251;-79
2022/01/21 08:17:02;;;;;;;20.97;19.97;;;;;;;;;;5091575;28;20281;-80
2022/01/21 08:19:28;;;;;;;20.07;19.07;;;;;;;;;;5094420;28;20193;-80
2022/01/21 08:21:55;;;;;;;22.17;20.97;;;;;;;;;;5095295;28;20229;-79
2022/01/21 08:24:22;;;;;;;20.00;19.00;;;;;;;;;;5095268;28;20236;-79
2022/01/21 08:26:49;;;;;;;21.03;19.93;;;;;;;;;;5095115;28;20229;-79
2022/01/21 08:29:16;;;;;;;22.00;20.80;;;;;;;;;;5095036;28;20230;-79
2022/01/21 08:31:44;;;;;;;23.73;22.50;;;;;;;;;;5094989;28;20312;-80
2022/01/21 08:34:11;;;;;;;22.70;21.40;;;;;;;;;;5095873;28;20205;-79
2022/01/21 08:36:39;;;;;;;22.40;21.30;;;;;;;;;;5094960;28;20259;-79
2022/01/21 08:39:06;;;;;;;23.13;21.93;;;;;;;;;;5095472;28;20193;-79
2022/01/21 08:41:33;;;;;;;24.20;22.87;;;;;;;;;;5095090;28;20671;-80
2022/01/21 08:44:00;;;;;;;21.57;20.47;;;;;;;;;;5094855;28;20664;-79
2022/01/21 08:46:26;;;;;;;21.70;20.60;;;;;;;;;;5095229;28;20635;-79
2022/01/21 08:48:54;;;;;;;23.13;21.27;;;;;;;;;;5094879;28;20277;-79
2022/01/21 08:51:25;;;;;;;22.57;21.37;;;;;;;;;;5094823;28;20272;-79
2022/01/21 08:53:52;;;;;;;24.70;23.30;;;;;;;;;;5095119;28;20288;-79
2022/01/21 08:56:19;;;;;;;22.37;21.07;;;;;;;;;;5094788;28;20728;-79
2022/01/21 08:58:47;;;;;;;25.50;24.10;;;;;;;;;;5094618;28;20233;-80
2022/01/21 09:01:14;;;;;;;25.57;24.17;;;;;;;;;;5094902;28;20262;-79
2022/01/21 09:03:41;;;;;;;22.80;21.50;;;;;;;;;;5095116;28;20724;-79
2022/01/21 09:06:11;;;;;;;25.67;24.00;;;;;;;;;;5094571;28;20289;-79
2022/01/21 09:08:40;;;;;;;34.07;31.07;;;;;;;;;;5094974;28;20189;-80
2022/01/21 09:11:07;;;;;;;25.77;23.97;;;;;;;;;;5094467;28;20222;-80
2022/01/21 09:13:39;;;;;;;23.27;21.97;;;;;;;;;;5094761;28;20304;-80
2022/01/21 09:16:07;;;;;;;23.33;22.03;;;;;;;;;;5094465;28;20186;-80
2022/01/21 09:18:45;;;;;;;23.33;21.83;;;;;;;;;;5094252;28;20198;-80
2022/01/21 09:21:14;;;;;;;24.63;23.23;;;;;;;;;;5094375;28;20254;-79
2022/01/21 09:23:41;;;;;;;32.67;30.67;;;;;;;;;;5094518;28;20280;-80
2022/01/21 09:26:07;;;;;;;27.93;26.33;;;;;;;;;;5094297;28;20229;-78
2022/01/21 09:28:34;;;;;;;28.73;27.03;;;;;;;;;;5094012;28;20587;-80
2022/01/21 09:31:02;;;;;;;27.70;26.00;;;;;;;;;;5093780;28;20197;-80
2022/01/21 09:33:28;;;;;;;26.57;24.87;;;;;;;;;;5093872;28;20193;-80
2022/01/21 09:35:55;;;;;;;25.60;24.10;;;;;;;;;;5093847;28;20190;-80
2022/01/21 09:38:24;;;;;;;24.33;22.93;;;;;;;;;;5094029;28;20197;-81
2022/01/21 09:40:52;;;;;;;23.47;22.17;;;;;;;;;;5094076;28;20193;-80
2022/01/21 09:43:19;;;;;;;30.00;24.87;;;;;;;;;;5094082;28;20281;-81
2022/01/21 09:45:47;;;;;;;25.87;24.47;;;;;;;;;;5093551;28;20198;-81
2022/01/21 09:48:21;;;;;;;26.60;25.10;;;;;;;;;;5093853;28;20193;-81
2022/01/21 09:50:48;;;;;;;26.10;24.70;;;;;;;;;;5093515;28;20190;-81
2022/01/21 09:53:15;;;;;;;24.30;23.00;;;;;;;;;;5093298;28;20229;-80
2022/01/21 09:55:43;;;;;;;25.00;23.60;;;;;;;;;;5093661;28;20198;-81
2022/01/21 09:58:10;;;;;;;26.23;24.67;;;;;;;;;;5093289;28;20261;-81
2022/01/21 10:00:37;;;;;;;28.40;26.73;;;;;;;;;;5093604;28;20202;-80
2022/01/21 10:03:04;;;;;;;26.73;25.23;;;;;;;;;;5093563;28;20680;-81
2022/01/21 10:05:31;;;;;;;25.87;24.47;;;;;;;;;;5093193;28;20726;-81
2022/01/21 10:08:00;;;;;;;28.03;26.43;;;;;;;;;;5093457;28;20273;-82
2022/01/21 10:10:26;;;;;;;28.03;26.33;;;;;;;;;;5093353;28;20706;-82
2022/01/21 10:13:02;;;;;;;26.97;25.33;;;;;;;;;;5093326;28;20866;-82
2022/01/21 10:15:28;;;;;;;25.97;24.37;;;;;;;;;;5093077;28;20272;-83
2022/01/21 10:17:59;;;;;;;26.67;25.07;;;;;;;;;;5093325;28;20247;-83
2022/01/21 10:20:26;;;;;;;25.63;24.13;;;;;;;;;;5092902;28;20229;-82
2022/01/21 10:22:59;;;;;;;25.83;24.27;;;;;;;;;;5092896;28;20237;-81
2022/01/21 10:25:26;;;;;;;24.20;22.80;;;;;;;;;;5092787;28;20233;-82
2022/01/21 10:27:53;;;;;;;23.87;22.17;;;;;;;;;;5093105;28;20251;-81
2022/01/21 10:30:22;;;;;;;23.23;21.93;;;;;;;;;;5092704;28;20194;-81
2022/01/21 10:32:49;;;;;;;23.57;22.27;;;;;;;;;;5092533;28;20222;-81
2022/01/21 10:35:19;;;;;;;22.60;21.30;;;;;;;;;;5092598;28;20281;-81
2022/01/21 10:37:46;;;;;;;25.13;23.63;;;;;;;;;;5092553;28;20745;-80
2022/01/21 10:40:15;;;;;;;26.00;24.50;;;;;;;;;;5092868;28;20193;-81
2022/01/21 10:42:41;;;;;;;24.30;22.80;;;;;;;;;;5092252;28;20198;-81
2022/01/21 10:45:09;;;;;;;24.23;22.83;;;;;;;;;;5093349;28;20653;-81
2022/01/21 10:47:38;;;;;;;24.53;23.03;;;;;;;;;;5092420;28;20215;-80
2022/01/21 10:50:07;;;;;;;22.87;21.57;;;;;;;;;;5092704;28;20194;-81
2022/01/21 10:52:35;;;;;;;25.97;23.53;;;;;;;;;;5092716;28;20286;-80
2022/01/21 10:55:02;;;;;;;25.43;23.83;;;;;;;;;;5092405;28;20229;-80
2022/01/21 10:57:30;;;;;;;25.10;23.53;;;;;;;;;;5092495;28;20232;-81
2022/01/21 10:59:58;;;;;;;26.43;24.83;;;;;;;;;;5092339;28;20190;-80
2022/01/21 11:02:31;;;;;;;27.57;25.87;;;;;;;;;;5092243;28;20569;-80
2022/01/21 11:05:01;;;;;;;26.77;25.17;;;;;;;;;;5092253;28;20732;-80
2022/01/21 11:07:47;;;;;;;24.97;23.47;;;;;;;;;;5093098;28;20193;-80
2022/01/21 11:10:29;;;;;;;27.13;25.43;;;;;;;;;;5092469;28;20656;-80
2022/01/21 11:12:56;;;;;;;27.33;25.37;;;;;;;;;;5091974;28;20313;-80
2022/01/21 11:15:22;;;;;;;26.13;24.53;;;;;;;;;;5092416;28;20302;-80
2022/01/21 11:17:56;;;;;;;25.80;24.20;;;;;;;;;;5092122;28;20251;-80
2022/01/21 11:20:31;;;;;;;24.80;23.30;;;;;;;;;;5092390;28;20190;-80
2022/01/21 11:22:59;;;;;;;24.90;23.40;;;;;;;;;;5092477;28;20194;-80
2022/01/21 11:25:40;;;;;;;25.50;24.00;;;;;;;;;;5092330;28;20193;-79
2022/01/21 11:28:07;;;;;;;26.43;24.83;;;;;;;;;;5092328;28;20221;-80
2022/01/21 11:30:34;;;;;;;26.70;25.07;;;;;;;;;;5091919;28;20197;-79
2022/01/21 11:33:01;;;;;;;25.83;24.33;;;;;;;;;;5092256;28;20283;-79
2022/01/21 11:35:29;;;;;;;26.50;24.97;;;;;;;;;;5091928;28;20194;-80
2022/01/21 11:37:56;;;;;;;25.93;24.43;;;;;;;;;;5092162;28;20197;-80
2022/01/21 11:40:23;;;;;;;27.27;25.57;;;;;;;;;;5092196;28;20229;-80
2022/01/21 11:42:50;;;;;;;29.50;27.43;;;;;;;;;;5092138;28;20221;-79
2022/01/21 11:45:31;;;;;;;28.00;26.20;;;;;;;;;;5092148;28;20277;-79
2022/01/21 11:48:49;;;;;;;26.90;25.20;;;;;;;;;;5091855;28;20193;-79
2022/01/21 11:50:50;;;;;;;24.50;23.00;;;;;;;;;;5091607;28;20200;-79
2022/01/21 11:53:42;;;;;;;26.43;24.83;;;;;;;;;;5094568;28;20776;-79
2022/01/21 11:56:29;;;;;;;27.33;25.63;;;;;;;;;;5095714;28;20220;-79
2022/01/21 11:59:03;;;;;;;25.53;23.93;;;;;;;;;;5095457;28;20272;-80
2022/01/21 12:01:33;;;;;;;27.33;25.63;;;;;;;;;;5095619;28;20678;-79
2022/01/21 12:04:00;;;;;;;28.27;26.47;;;;;;;;;;5095918;28;20190;-79
2022/01/21 12:06:36;;;;;;;26.80;25.20;;;;;;;;;;5095808;28;20201;-79
2022/01/21 12:09:04;;;;;;;28.33;26.60;;;;;;;;;;5095504;28;20247;-79
2022/01/21 12:11:34;;;;;;;27.47;25.87;;;;;;;;;;5095435;28;20739;-79
2022/01/21 12:14:03;;;;;;;25.73;24.23;;;;;;;;;;5095661;28;20229;-78
2022/01/21 12:16:56;;;;;;;25.33;23.90;;;;;;;;;;5095606;28;20273;-80
2022/01/21 12:19:28;;;;;;;27.27;25.67;;;;;;;;;;5095330;28;20186;-79
2022/01/21 12:21:56;;;;;;;28.27;26.57;;;;;;;;;;5095555;28;20194;-78
2022/01/21 12:24:41;;;;;;;28.97;27.27;;;;;;;;;;5095169;28;20229;-78
2022/01/21 12:27:09;;;;;;;28.00;26.40;;;;;;;;;;5095130;28;20576;-78
2022/01/21 12:29:36;;;;;;;27.00;25.40;;;;;;;;;;5095379;28;20233;-79
2022/01/21 12:32:07;;;;;;;29.27;27.47;;;;;;;;;;5095250;28;20194;-77
2022/01/21 12:34:52;;;;;;;28.37;26.67;;;;;;;;;;5095317;28;20186;-78
2022/01/21 12:37:24;;;;;;;28.07;26.37;;;;;;;;;;5095264;28;20263;-78
2022/01/21 12:39:51;;;;;;;26.63;24.93;;;;;;;;;;5095229;28;20218;-78
2022/01/21 12:42:25;;;;;;;26.63;24.60;;;;;;;;;;5094803;28;20793;-77
2022/01/21 12:44:52;;;;;;;30.80;28.80;;;;;;;;;;5094749;28;20751;-77
2022/01/21 12:47:32;;;;;;;29.43;27.73;;;;;;;;;;5094709;28;20197;-78
2022/01/21 12:50:06;;;;;;;29.13;27.23;;;;;;;;;;5094696;28;20637;-78
2022/01/21 12:52:45;;;;;;;27.93;26.33;;;;;;;;;;5094955;28;20214;-78
2022/01/21 12:58:04;;;;;;;28.83;26.53;;;;;;;;;;5094668;28;20355;-78
2022/01/21 13:00:31;;;;;;;28.07;26.47;;;;;;;;;;5094832;28;20273;-78
2022/01/21 13:02:58;;;;;;;28.93;27.23;;;;;;;;;;5095050;28;20220;-79
2022/01/21 13:05:32;;;;;;;22.33;21.03;;;;;;;;;;5094422;28;20244;-78
2022/01/21 13:08:10;;;;;;;23.03;21.73;;;;;;;;;;5094476;28;20197;-78
2022/01/21 13:10:37;;;;;;;22.93;21.63;;;;;;;;;;5095415;28;20273;-79
2022/01/21 13:13:17;;;;;;;24.87;23.47;;;;;;;;;;5095533;28;20225;-79
2022/01/21 13:15:45;;;;;;;25.07;23.67;;;;;;;;;;5096129;28;20190;-79
2022/01/21 13:18:14;;;;;;;25.50;24.10;;;;;;;;;;5096773;28;20198;-78
2022/01/21 13:20:42;;;;;;;26.33;24.63;;;;;;;;;;5095851;28;20756;-79
2022/01/21 13:23:12;;;;;;;26.40;24.67;;;;;;;;;;5095161;28;20285;-79
2022/01/21 13:25:39;;;;;;;25.67;24.27;;;;;;;;;;5095772;28;20189;-78
2022/01/21 13:28:07;;;;;;;28.50;26.47;;;;;;;;;;5095780;28;20255;-78
2022/01/21 13:30:35;;;;;;;31.60;29.43;;;;;;;;;;5095733;28;20233;-78
2022/01/21 13:33:03;;;;;;;23.53;21.70;;;;;;;;;;5097943;28;20226;-77
2022/01/21 13:35:30;;;;;;;25.33;23.83;;;;;;;;;;5099346;28;20200;-79
2022/01/21 13:38:07;;;;;;;26.27;24.67;;;;;;;;;;5098474;28;20280;-78
2022/01/21 13:40:37;;;;;;;26.33;24.73;;;;;;;;;;5101431;28;20193;-78
2022/01/21 13:43:14;;;;;;;28.10;26.33;;;;;;;;;;5100082;28;20229;-78
2022/01/21 13:45:42;;;;;;;27.47;25.77;;;;;;;;;;5099491;28;20563;-78
2022/01/21 13:48:09;;;;;;;28.27;26.47;;;;;;;;;;5099557;28;20194;-78
2022/01/21 13:50:36;;;;;;;26.43;24.83;;;;;;;;;;5097810;28;20200;-78
2022/01/21 13:53:04;;;;;;;27.20;25.60;;;;;;;;;;5100489;28;20221;-78
2022/01/21 13:55:32;;;;;;;26.53;24.93;;;;;;;;;;5099985;28;20255;-78
2022/01/21 13:58:03;;;;;;;27.00;25.30;;;;;;;;;;5100920;28;20253;-79
2022/01/21 14:00:31;;;;;;;25.83;24.23;;;;;;;;;;5099903;28;20197;-79
2022/01/21 14:03:01;;;;;;;26.50;24.90;;;;;;;;;;5105327;28;20262;-78
2022/01/21 14:05:41;;;;;;;26.80;25.20;;;;;;;;;;5108749;28;20204;-79
2022/01/21 14:08:09;;;;;;;27.97;26.27;;;;;;;;;;5109061;28;20273;-79
2022/01/21 14:10:36;;;;;;;27.57;25.67;;;;;;;;;;5110350;28;20198;-79
2022/01/21 14:13:05;;;;;;;28.23;26.43;;;;;;;;;;5111172;28;20232;-78
2022/01/21 14:15:32;;;;;;;29.67;27.77;;;;;;;;;;5105344;28;20201;-79
2022/01/21 14:17:59;;;;;;;28.60;26.80;;;;;;;;;;5108951;28;20198;-78
2022/01/21 14:20:27;;;;;;;28.77;26.97;;;;;;;;;;5108908;28;20285;-78
2022/01/21 14:22:54;;;;;;;29.17;27.27;;;;;;;;;;5109142;28;20201;-78
2022/01/21 14:25:21;;;;;;;27.53;25.73;;;;;;;;;;5108909;28;20194;-78
2022/01/21 14:27:49;;;;;;;26.73;25.03;;;;;;;;;;5113176;28;20205;-78
2022/01/21 14:30:18;;;;;;;25.97;24.27;;;;;;;;;;5107472;28;20253;-78
2022/01/21 14:32:49;;;;;;;27.40;25.60;;;;;;;;;;5112871;28;20255;-78
2022/01/21 14:35:18;;;;;;;28.20;26.40;;;;;;;;;;5102255;28;20186;-78
2022/01/21 14:37:46;;;;;;;26.17;24.63;;;;;;;;;;5100499;28;20233;-78
2022/01/21 14:40:14;;;;;;;25.60;24.03;;;;;;;;;;5103634;28;20193;-79
2022/01/21 14:42:40;;;;;;;24.33;22.93;;;;;;;;;;5104178;28;20258;-79
2022/01/21 14:45:13;;;;;;;23.50;22.10;;;;;;;;;;5101568;28;20288;-78
2022/01/21 14:47:42;;;;;;;23.20;21.80;;;;;;;;;;5100562;28;20194;-79
2022/01/21 14:50:11;;;;;;;23.40;22.00;;;;;;;;;;5100859;28;20201;-79
2022/01/21 14:52:39;;;;;;;23.40;22.07;;;;;;;;;;5100499;28;20198;-80
2022/01/21 14:55:11;;;;;;;20.73;19.73;;;;;;;;;;5096065;28;20243;-79
2022/01/21 14:57:38;;;;;;;21.13;20.03;;;;;;;;;;5100248;28;20291;-79
2022/01/21 15:00:08;;;;;;;22.20;21.00;;;;;;;;;;5099472;28;20671;-79
2022/01/21 15:02:36;;;;;;;21.53;20.43;;;;;;;;;;5099308;28;20193;-79